createdAt,value
2019-03-26T00:09:46.181Z,5436.4
2019-03-26T00:19:45.401Z,5436.4
2019-03-26T00:29:44.612Z,5436.4
2019-03-26T00:39:43.827Z,5436.4
2019-03-26T00:49:43.042Z,5436.4
2019-03-26T00:59:42.257Z,5436.4
2019-03-26T01:09:41.474Z,5436.4
2019-03-26T01:19:40.685Z,5436.4
2019-03-26T01:29:39.899Z,5436.4
2019-03-26T01:39:39.114Z,5436.4
2019-03-26T01:49:38.328Z,5436.4
2019-03-26T01:59:37.543Z,5436.4
2019-03-26T02:09:36.756Z,5436.5
2019-03-26T02:19:35.970Z,5436.7
2019-03-26T02:29:35.184Z,5436.8
2019-03-26T02:39:34.399Z,5436.8
2019-03-26T02:49:33.612Z,5436.8
2019-03-26T02:59:32.828Z,5436.8
2019-03-26T03:09:32.039Z,5436.8
2019-03-26T03:19:31.256Z,5436.8
2019-03-26T03:29:30.469Z,5436.8
2019-03-26T03:39:29.683Z,5436.8
2019-03-26T03:49:28.891Z,5437
2019-03-26T03:59:28.106Z,5437.3
2019-03-26T04:09:27.325Z,5437.5
2019-03-26T04:19:26.530Z,5437.8
2019-03-26T04:29:25.745Z,5438
2019-03-26T04:39:24.956Z,5438.2
2019-03-26T04:49:24.171Z,5438.2
2019-03-26T04:59:23.385Z,5438.5
2019-03-26T05:09:22.598Z,5438.7
2019-03-26T05:19:21.813Z,5439
2019-03-26T05:29:21.026Z,5439.2
2019-03-26T05:39:20.240Z,5439.2
2019-03-26T05:49:19.453Z,5439.2
2019-03-26T05:59:18.668Z,5439.4
2019-03-26T06:09:17.883Z,5439.7
2019-03-26T06:19:17.096Z,5439.8
2019-03-26T06:29:16.310Z,5439.8
2019-03-26T06:39:15.523Z,5439.8
2019-03-26T06:49:14.737Z,5439.8
2019-03-26T06:59:13.950Z,5439.8
2019-03-26T07:09:13.162Z,5439.8
2019-03-26T07:19:12.375Z,5439.8
2019-03-26T07:29:11.588Z,5439.8
2019-03-26T07:39:10.801Z,5439.8
2019-03-26T07:49:10.014Z,5439.8
2019-03-26T07:59:09.226Z,5439.8
2019-03-26T08:09:08.524Z,5439.8
2019-03-26T08:19:07.652Z,5439.9
2019-03-26T08:29:06.869Z,5440.1
2019-03-26T08:39:06.079Z,5440.2
2019-03-26T08:49:05.304Z,5440.2
2019-03-26T08:59:04.508Z,5440.2
2019-03-26T09:09:29.701Z,5439.8
2019-03-26T09:19:28.913Z,5439.8
2019-03-26T09:29:28.126Z,5439.8
2019-03-26T09:39:27.338Z,5439.8
2019-03-26T09:49:26.550Z,5439.8
2019-03-26T09:59:25.761Z,5439.8
2019-03-26T10:09:25.014Z,5439.8
2019-03-26T10:19:24.313Z,5439.8
2019-03-26T10:29:29.877Z,5439.8
2019-03-26T10:39:22.904Z,5439.8
2019-03-26T10:49:22.199Z,5439.8
2019-03-26T10:59:21.493Z,5439.8
2019-03-26T11:09:26.804Z,5439.8
2019-03-26T11:19:19.916Z,5439.8
2019-03-26T11:29:19.124Z,5439.8
2019-03-26T11:49:17.545Z,5439.8
2019-03-26T11:59:16.757Z,5439.8
2019-03-26T12:09:15.968Z,5439.8
2019-03-26T12:19:15.177Z,5439.8
2019-03-26T12:29:14.386Z,5439.8
2019-03-26T12:39:13.597Z,5439.8
2019-03-26T12:49:12.808Z,5439.8
2019-03-26T12:59:12.036Z,5439.8
2019-03-26T13:09:11.227Z,5439.8
2019-03-26T13:19:10.436Z,5439.8
2019-03-26T13:29:09.646Z,5439.8
2019-03-26T13:39:08.861Z,5439.8
2019-03-26T13:49:08.067Z,5439.8
2019-03-26T13:59:07.279Z,5439.8
2019-03-26T14:09:06.485Z,5439.8
2019-03-26T14:19:05.711Z,5439.8
2019-03-26T14:29:04.907Z,5439.8
2019-03-26T14:39:04.120Z,5439.8
2019-03-26T14:49:03.328Z,5439.8
2019-03-26T14:59:02.533Z,5439.8
2019-03-26T15:09:01.748Z,5439.8
2019-03-26T15:19:00.953Z,5439.8
2019-03-26T15:29:00.162Z,5439.8
2019-03-26T15:38:59.371Z,5439.8
2019-03-26T15:48:58.581Z,5439.8
2019-03-26T15:58:57.792Z,5439.8
2019-03-26T16:08:57.019Z,5439.8
2019-03-26T16:18:56.210Z,5440.1
2019-03-26T16:28:55.421Z,5440.3
2019-03-26T16:38:54.632Z,5440.5
2019-03-26T16:48:53.844Z,5440.8
2019-03-26T16:58:53.055Z,5441
2019-03-26T17:08:52.267Z,5441.3
2019-03-26T17:18:51.533Z,5441.5
2019-03-26T17:28:50.692Z,5441.7
2019-03-26T17:38:49.900Z,5442
2019-03-26T17:48:49.109Z,5442.2
2019-03-26T17:58:48.319Z,5442.5
2019-03-26T18:08:47.534Z,5442.7
2019-03-26T18:18:46.744Z,5442.7
2019-03-26T18:28:45.955Z,5442.7
2019-03-26T18:38:45.168Z,5443
2019-03-26T18:48:44.381Z,5443.2
2019-03-26T18:58:43.592Z,5443.2
2019-03-26T19:08:31.301Z,5442.7
2019-03-26T19:18:30.511Z,5443
2019-03-26T19:28:29.723Z,5443.2
2019-03-26T19:38:28.935Z,5443.4
2019-03-26T19:48:28.145Z,5443.4
2019-03-26T19:58:27.356Z,5443.4
2019-03-26T20:08:26.624Z,5443.4
2019-03-26T20:18:25.920Z,5443.4
2019-03-26T20:28:26.650Z,5443.4
2019-03-26T20:38:24.511Z,5443.4
2019-03-26T20:48:23.807Z,5443.4
2019-03-26T20:58:23.106Z,5443.4
2019-03-26T21:08:22.313Z,5443.4
2019-03-26T21:18:21.525Z,5443.4
2019-03-26T21:28:20.736Z,5443.4
2019-03-26T21:39:45.788Z,5443.4
2019-03-26T21:49:44.999Z,5443.4
2019-03-26T21:59:44.210Z,5443.4
2019-03-26T22:09:43.420Z,5443.4
2019-03-26T22:23:55.757Z,5443.4
2019-03-26T22:33:54.967Z,5443.4
2019-03-26T22:43:55.162Z,5443.4
2019-03-26T22:53:53.387Z,5443.4
2019-03-26T23:03:52.601Z,5443.4
2019-03-26T23:13:51.807Z,5443.4
2019-03-26T23:23:51.063Z,5443.4
2019-03-26T23:33:50.361Z,5443.4
2019-03-26T23:59:29.801Z,5443.4
